Milwaukee, WI (53211)

7:59 AM CST on December 05, 2016 (GMT -0600)
Murray Hill | | Change Station

Elev 666 ft 43.07 °N, 87.88 °W | Updated 17 seconds ago

Overcast
Overcast
33.2 °F
Feels Like 29 °F
N
4.0
Wind Variable Wind from WNW

Today
High -- | Low -- °F
--% Chance of Precip.
Yesterday
High -- | Low -- °F
Precip. -- in
Pressure 29.98 in
Visibility 7.0 miles
Clouds Overcast 800 ft
Windchill 29 °F
Dew Point 31 °F
Humidity 93%
Rainfall 0.02 in
Snow Depth Not available.
7:08 AM 4:16 PM
Waxing Crescent, 32% visible
METAR KMWC 051345Z 23005KT 7SM OVC008 01/M02 A2998
Pressure 29.98 in
Visibility 7.0 miles
Clouds Overcast 800 ft
Windchill 29 °F
Dew Point 31 °F
Humidity 93%
Rainfall 0.02 in
Snow Depth Not available.
7:08 AM 4:16 PM
Waxing Crescent, 32% visible
METAR KMWC 051345Z 23005KT 7SM OVC008 01/M02 A2998

10-Day Weather Forecast

Almanac

Astronomy

Dec. 05, 2016 Rise Set
Actual Time
Civil Twilight
Nautical Twilight
Astronomical Twilight
Moon
Length of Visible Light
Length of Day
Tomorrow will be .
, % of the Moon is Illuminated

Today's Extremes

State Highs State Lows

Community

WunderPhotos

Upload Photos

1,955,780 photos uploaded!

WunderBlog® & News

Nearby

Air Quality

  Air Quality AQ Index Pollutant
Not available.

Snow Depth

Station Depth Elevation

Earthquake Activity

City Distance Mag. Time & Date
Minimum magnitude displayed is 2.5.

Coastal Water Temperatures

Place Temperature

Stations

Nearby Weather Stations

Station Location Temp. Windchill Dew Point Humidity Wind Precip. Elev Updated Type
                   

Watches & Warnings

There are currently no watches in effect.